createdAt,value
2018-12-15T15:05:06.804Z,1023.50
2018-12-15T15:05:59.291Z,1023.50
2018-12-15T15:06:59.267Z,1023.48
2018-12-15T15:07:59.320Z,1023.49
2018-12-15T15:08:59.423Z,1023.46
2018-12-15T15:09:59.347Z,1023.50
2018-12-15T15:10:59.225Z,1023.43
2018-12-15T15:11:59.197Z,1023.43
2018-12-15T15:12:59.199Z,1023.47
2018-12-15T15:13:59.189Z,1023.45
2018-12-15T15:14:59.167Z,1023.46
2018-12-15T15:15:59.211Z,1023.41
2018-12-15T15:16:59.157Z,1023.39
2018-12-15T15:17:59.138Z,1023.38
2018-12-15T15:18:59.128Z,1023.38
2018-12-15T15:19:59.113Z,1023.34
2018-12-15T15:20:59.124Z,1023.35
2018-12-15T15:21:59.100Z,1023.43
2018-12-15T15:22:59.100Z,1023.56
2018-12-15T15:28:51.881Z,1023.56
2018-12-15T15:29:51.851Z,1023.56
2018-12-15T15:30:51.863Z,1023.50
2018-12-15T15:31:51.842Z,1023.32
2018-12-15T15:32:51.827Z,1023.36
2018-12-15T15:33:52.587Z,1023.35
2018-12-15T15:34:51.812Z,1023.36
2018-12-15T15:35:52.050Z,1023.33
2018-12-15T15:36:51.784Z,1023.30
2018-12-15T15:37:51.775Z,1023.29
2018-12-15T15:38:51.762Z,1023.27
2018-12-15T15:39:51.751Z,1023.28
2018-12-15T15:40:51.772Z,1023.27
2018-12-15T15:41:51.740Z,1023.22
2018-12-15T15:42:52.425Z,1023.24
2018-12-15T15:43:51.713Z,1023.20
2018-12-15T15:44:51.698Z,1023.17
2018-12-15T15:45:51.725Z,1023.18
2018-12-15T15:46:51.677Z,1023.17
2018-12-15T15:47:51.663Z,1023.18
2018-12-15T15:48:51.657Z,1023.21
2018-12-15T15:49:51.656Z,1023.20
2018-12-15T15:50:51.658Z,1023.18
2018-12-15T15:51:51.636Z,1023.19
2018-12-15T15:52:51.613Z,1023.16
2018-12-15T15:53:51.605Z,1023.14
2018-12-15T15:54:51.595Z,1023.18
2018-12-15T15:55:51.583Z,1023.17
2018-12-15T15:56:51.595Z,1023.08
2018-12-15T15:57:51.569Z,1023.13
2018-12-15T15:58:51.555Z,1023.10
2018-12-15T15:59:52.552Z,1023.08
2018-12-15T16:00:51.527Z,1023.09
2018-12-15T16:01:51.570Z,1023.10
2018-12-15T16:02:51.519Z,1023.11
2018-12-15T16:03:51.489Z,1023.12
2018-12-15T16:04:51.485Z,1023.14
2018-12-15T16:05:51.483Z,1023.13
2018-12-15T16:06:51.487Z,1023.11
2018-12-15T16:07:51.466Z,1023.13
2018-12-15T16:08:51.581Z,1023.12
2018-12-15T16:09:51.429Z,1023.10
2018-12-15T16:10:51.423Z,1023.08
2018-12-15T16:11:52.423Z,1023.10
2018-12-15T16:12:51.406Z,1023.05
2018-12-15T16:13:51.399Z,1023.01
2018-12-15T16:14:51.397Z,1023.00
2018-12-15T16:15:51.369Z,1023.02
2018-12-15T16:16:51.369Z,1022.96
2018-12-15T16:17:51.353Z,1022.95
2018-12-15T16:18:51.339Z,1022.95
2018-12-15T16:19:51.340Z,1022.95
2018-12-15T16:20:51.328Z,1022.92
2018-12-15T16:21:51.347Z,1022.93
2018-12-15T16:22:51.311Z,1022.94
2018-12-15T16:23:51.303Z,1022.92
2018-12-15T16:24:51.283Z,1022.98
2018-12-15T16:25:51.262Z,1023.00
2018-12-15T16:26:51.267Z,1022.94
2018-12-15T16:27:51.255Z,1022.93
2018-12-15T16:28:51.229Z,1022.92
2018-12-15T16:29:51.221Z,1022.83
2018-12-15T16:30:51.215Z,1022.83
2018-12-15T16:31:51.222Z,1022.81
2018-12-15T16:32:51.204Z,1022.78
2018-12-15T16:33:51.186Z,1022.78
2018-12-15T16:34:51.228Z,1022.77
2018-12-15T16:35:51.171Z,1022.76
2018-12-15T16:36:51.165Z,1022.77
2018-12-15T16:37:51.133Z,1022.78
2018-12-15T16:38:51.204Z,1022.77
2018-12-15T16:39:51.121Z,1022.75
2018-12-15T16:40:51.111Z,1022.72
2018-12-15T16:41:51.115Z,1022.73
2018-12-15T16:42:51.094Z,1022.74
2018-12-15T16:43:51.094Z,1022.69
2018-12-15T16:44:51.067Z,1022.72
2018-12-15T16:45:51.063Z,1022.71
2018-12-15T16:46:51.055Z,1022.75
2018-12-15T16:47:51.051Z,1022.73
2018-12-15T16:48:51.029Z,1022.71
2018-12-15T16:49:51.038Z,1022.71
2018-12-15T16:50:51.003Z,1022.72
2018-12-15T16:51:51.049Z,1022.70
2018-12-15T16:52:51.031Z,1022.70
2018-12-15T16:53:50.979Z,1022.67
2018-12-15T16:54:50.961Z,1022.67
2018-12-15T16:55:51.056Z,1022.65
2018-12-15T16:56:50.991Z,1022.67
2018-12-15T16:57:50.939Z,1022.64
2018-12-15T16:58:50.924Z,1022.64
2018-12-15T16:59:50.908Z,1022.66
2018-12-15T17:00:50.903Z,1022.63
2018-12-15T17:01:50.906Z,1022.65
2018-12-15T17:02:50.875Z,1022.65
2018-12-15T17:03:50.868Z,1022.65
2018-12-15T17:04:50.864Z,1022.65
2018-12-15T17:05:50.851Z,1022.64
2018-12-15T17:06:50.850Z,1022.61
2018-12-15T17:07:50.826Z,1022.57
2018-12-15T17:08:50.810Z,1022.57
2018-12-15T17:09:50.809Z,1022.54
2018-12-15T17:10:50.798Z,1022.54
2018-12-15T17:11:50.798Z,1022.56
2018-12-15T17:12:50.768Z,1022.58
2018-12-15T17:13:50.766Z,1022.52
2018-12-15T17:14:50.756Z,1022.55
2018-12-15T17:15:50.744Z,1022.57
2018-12-15T17:16:50.763Z,1022.54
2018-12-15T17:17:50.739Z,1022.53
2018-12-15T17:18:50.744Z,1022.55
2018-12-15T17:19:50.707Z,1022.58
2018-12-15T17:20:56.488Z,1022.52
2018-12-15T17:21:51.700Z,1022.52
2018-12-15T17:22:50.664Z,1022.51
2018-12-15T17:23:50.681Z,1022.51
2018-12-15T17:24:50.666Z,1022.56
2018-12-15T17:25:50.664Z,1022.53
2018-12-15T17:26:50.652Z,1022.56
2018-12-15T17:27:50.642Z,1022.54
2018-12-15T17:28:50.623Z,1022.53
2018-12-15T17:29:50.595Z,1022.52
2018-12-15T17:30:50.577Z,1022.53
2018-12-15T17:31:50.573Z,1022.51
2018-12-15T17:32:50.576Z,1022.48
2018-12-15T17:33:50.571Z,1022.51
2018-12-15T17:34:50.540Z,1022.47
2018-12-15T17:35:50.533Z,1022.46
2018-12-15T17:36:50.587Z,1022.42
2018-12-15T17:37:50.545Z,1022.46
2018-12-15T17:38:50.492Z,1022.44
2018-12-15T17:39:50.489Z,1022.44
2018-12-15T17:40:51.424Z,1022.40
2018-12-15T17:41:50.479Z,1022.40
2018-12-15T17:42:50.483Z,1022.38
2018-12-15T17:43:50.447Z,1022.38
2018-12-15T17:44:50.436Z,1022.38
2018-12-15T17:45:50.463Z,1022.34
2018-12-15T17:46:50.455Z,1022.39
2018-12-15T17:47:50.429Z,1022.34
2018-12-15T17:48:50.392Z,1022.32
2018-12-15T17:49:50.387Z,1022.29
2018-12-15T17:50:50.374Z,1022.30
2018-12-15T17:51:50.358Z,1022.27
2018-12-15T17:52:50.372Z,1022.25
2018-12-15T17:53:50.345Z,1022.29
2018-12-15T17:54:50.331Z,1022.29
2018-12-15T17:55:50.346Z,1022.25
2018-12-15T17:56:50.307Z,1022.25
2018-12-15T17:57:50.324Z,1022.22
2018-12-15T17:58:50.299Z,1022.22
2018-12-15T17:59:50.271Z,1022.19
2018-12-15T18:00:50.307Z,1022.19
2018-12-15T18:01:50.329Z,1022.17
2018-12-15T18:02:50.255Z,1022.23
2018-12-15T18:03:50.253Z,1022.19
2018-12-15T18:04:50.239Z,1022.23
2018-12-15T18:05:50.219Z,1022.22
2018-12-15T18:06:50.204Z,1022.24
2018-12-15T18:07:50.194Z,1022.22
2018-12-15T18:08:50.203Z,1022.20
2018-12-15T18:09:50.185Z,1022.20
2018-12-15T18:10:50.181Z,1022.18
2018-12-15T18:11:50.157Z,1022.19
2018-12-15T18:12:50.144Z,1022.16
2018-12-15T18:13:50.185Z,1022.15
2018-12-15T18:14:50.117Z,1022.15
2018-12-15T18:15:50.126Z,1022.18
2018-12-15T18:16:50.103Z,1022.15
2018-12-15T18:17:50.113Z,1022.12
2018-12-15T18:18:50.089Z,1022.11
2018-12-15T18:19:50.103Z,1022.09
2018-12-15T18:20:50.052Z,1022.09
2018-12-15T18:21:50.079Z,1022.10
2018-12-15T18:22:50.041Z,1022.05
2018-12-15T18:23:50.035Z,1022.07
2018-12-15T18:24:50.015Z,1022.04
2018-12-15T18:25:50.040Z,1022.01
2018-12-15T18:26:49.993Z,1021.98
2018-12-15T18:27:50.020Z,1021.95
2018-12-15T18:28:50.039Z,1021.95
2018-12-15T18:29:49.958Z,1021.93
2018-12-15T18:30:49.990Z,1021.93
2018-12-15T18:31:49.965Z,1021.94
2018-12-15T18:32:49.951Z,1021.90
2018-12-15T18:33:50.009Z,1021.87
2018-12-15T18:34:49.927Z,1021.88
2018-12-15T18:35:49.911Z,1021.82
2018-12-15T18:36:49.893Z,1021.83
2018-12-15T18:37:49.880Z,1021.78
2018-12-15T18:38:49.860Z,1021.78
2018-12-15T18:39:49.880Z,1021.78
2018-12-15T18:40:49.862Z,1021.76
2018-12-15T18:41:49.848Z,1021.76
2018-12-15T18:42:49.816Z,1021.75
2018-12-15T18:43:49.834Z,1021.69
2018-12-15T18:44:49.830Z,1021.70
2018-12-15T18:45:49.784Z,1021.68
2018-12-15T18:46:49.808Z,1021.73
2018-12-15T18:47:49.844Z,1021.71
2018-12-15T18:48:49.786Z,1021.70
2018-12-15T18:49:49.770Z,1021.68
2018-12-15T18:50:49.758Z,1021.69
2018-12-15T18:51:49.758Z,1021.68
2018-12-15T18:52:49.736Z,1021.72
2018-12-15T18:53:49.733Z,1021.65
2018-12-15T18:54:49.718Z,1021.63
2018-12-15T18:55:49.717Z,1021.62
2018-12-15T18:56:49.740Z,1021.55
2018-12-15T18:57:49.666Z,1021.58
2018-12-15T18:58:49.694Z,1021.57
2018-12-15T18:59:49.690Z,1021.57
2018-12-15T19:00:49.633Z,1021.56
2018-12-15T19:01:49.628Z,1021.53
2018-12-15T19:02:49.657Z,1021.56
2018-12-15T19:03:49.615Z,1021.55
2018-12-15T19:04:49.614Z,1021.51
2018-12-15T19:05:49.619Z,1021.49
2018-12-15T19:06:49.581Z,1021.45
2018-12-15T19:07:49.578Z,1021.50
2018-12-15T19:08:49.584Z,1021.51
2018-12-15T19:09:49.615Z,1021.52
2018-12-15T19:10:49.528Z,1021.49
2018-12-15T19:11:49.523Z,1021.47
2018-12-15T19:12:49.516Z,1021.49
2018-12-15T19:13:49.543Z,1021.48
2018-12-15T19:14:49.514Z,1021.46
2018-12-15T19:15:49.480Z,1021.48
2018-12-15T19:16:49.463Z,1021.40
2018-12-15T19:17:49.470Z,1021.44
2018-12-15T19:18:49.471Z,1021.45
2018-12-15T19:19:49.455Z,1021.42
2018-12-15T19:20:49.489Z,1021.39
2018-12-15T19:21:49.419Z,1021.33
2018-12-15T19:22:49.416Z,1021.39
2018-12-15T19:23:49.381Z,1021.37
2018-12-15T19:24:49.403Z,1021.35
2018-12-15T19:25:49.369Z,1021.35
2018-12-15T19:26:49.375Z,1021.37
2018-12-15T19:27:49.383Z,1021.35
2018-12-15T19:28:49.343Z,1021.37
2018-12-15T19:29:49.351Z,1021.35
2018-12-15T19:30:49.331Z,1021.32
2018-12-15T19:31:49.303Z,1021.34
2018-12-15T19:32:49.325Z,1021.33
2018-12-15T19:33:49.288Z,1021.31
2018-12-15T19:34:52.398Z,1021.34
2018-12-15T19:35:49.289Z,1021.30
2018-12-15T19:36:49.261Z,1021.29
2018-12-15T19:37:49.267Z,1021.26
2018-12-15T19:38:49.285Z,1021.24
2018-12-15T19:39:49.219Z,1021.26
2018-12-15T19:40:49.247Z,1021.25
2018-12-15T19:41:49.219Z,1021.24
2018-12-15T19:42:49.200Z,1021.14
2018-12-15T19:43:49.200Z,1021.12
2018-12-15T19:44:49.179Z,1021.13
2018-12-15T19:45:49.181Z,1021.23
2018-12-15T19:46:49.147Z,1021.17
2018-12-15T19:47:49.153Z,1021.14
2018-12-15T19:48:49.152Z,1021.12
2018-12-15T19:49:49.125Z,1021.10
2018-12-15T19:50:49.151Z,1021.09
2018-12-15T19:51:49.091Z,1021.08
2018-12-15T19:52:49.098Z,1021.08
2018-12-15T19:53:49.081Z,1021.09
2018-12-15T19:54:49.068Z,1021.09
2018-12-15T19:55:49.054Z,1021.08
2018-12-15T19:56:49.081Z,1021.15
2018-12-15T19:57:49.042Z,1021.12
2018-12-15T19:58:49.039Z,1021.11
2018-12-15T19:59:49.006Z,1021.06
2018-12-15T20:00:49.001Z,1021.08
2018-12-15T20:01:49.018Z,1021.04
2018-12-15T20:02:48.980Z,1021.00
2018-12-15T20:03:48.967Z,1021.01
2018-12-15T20:04:48.960Z,1021.02
2018-12-15T20:05:48.944Z,1021.00
2018-12-15T20:06:48.956Z,1021.00
2018-12-15T20:07:48.932Z,1020.96
2018-12-15T20:08:48.915Z,1020.96
2018-12-15T20:09:48.904Z,1020.93
2018-12-15T20:10:48.892Z,1020.89
2018-12-15T20:11:48.900Z,1020.90
2018-12-15T20:12:48.880Z,1020.91
2018-12-15T20:13:48.873Z,1020.89
2018-12-15T20:14:48.861Z,1020.91
2018-12-15T20:15:48.846Z,1020.91
2018-12-15T20:16:48.846Z,1020.88
2018-12-15T20:17:48.823Z,1020.86
2018-12-15T20:18:48.811Z,1020.86
2018-12-15T20:19:48.818Z,1020.86
2018-12-15T20:20:48.790Z,1020.83
2018-12-15T20:21:48.838Z,1020.80
2018-12-15T20:22:48.787Z,1020.79
2018-12-15T20:23:48.778Z,1020.81
2018-12-15T20:24:48.748Z,1020.78
2018-12-15T20:25:48.736Z,1020.76
2018-12-15T20:26:48.738Z,1020.76
2018-12-15T20:27:48.720Z,1020.72
2018-12-15T20:28:48.710Z,1020.69
2018-12-15T20:29:48.688Z,1020.68
2018-12-15T20:30:48.686Z,1020.69
2018-12-15T20:31:48.706Z,1020.61
2018-12-15T20:32:48.680Z,1020.63
2018-12-15T20:33:48.650Z,1020.60
2018-12-15T20:34:48.640Z,1020.58
2018-12-15T20:35:48.634Z,1020.57
2018-12-15T20:36:48.632Z,1020.55
2018-12-15T20:37:48.640Z,1020.53
2018-12-15T20:38:48.612Z,1020.55
2018-12-15T20:39:48.589Z,1020.58
2018-12-15T20:40:48.585Z,1020.54
2018-12-15T20:41:48.600Z,1020.55
2018-12-15T20:42:48.607Z,1020.52
2018-12-15T20:43:48.548Z,1020.49
2018-12-15T20:44:48.535Z,1020.50
2018-12-15T20:45:48.529Z,1020.49
2018-12-15T20:46:48.522Z,1020.45
2018-12-15T20:47:48.546Z,1020.45
2018-12-15T20:48:48.512Z,1020.43
2018-12-15T20:49:48.514Z,1020.43
2018-12-15T20:50:48.481Z,1020.40
2018-12-15T20:51:48.485Z,1020.40
2018-12-15T20:52:48.479Z,1020.38
2018-12-15T20:53:48.442Z,1020.40
2018-12-15T20:54:48.431Z,1020.37
2018-12-15T20:55:48.418Z,1020.38
2018-12-15T20:56:48.442Z,1020.38
2018-12-15T20:57:48.452Z,1020.38
2018-12-15T20:58:48.394Z,1020.34
2018-12-15T20:59:48.374Z,1020.35
2018-12-15T21:00:48.371Z,1020.35
2018-12-15T21:01:48.368Z,1020.32
2018-12-15T21:02:48.367Z,1020.36
2018-12-15T21:03:48.344Z,1020.36
2018-12-15T21:04:48.325Z,1020.32
2018-12-15T21:05:48.333Z,1020.34
2018-12-15T21:06:48.303Z,1020.35
2018-12-15T21:07:48.414Z,1020.28
2018-12-15T21:08:48.279Z,1020.33
2018-12-15T21:09:48.267Z,1020.26
2018-12-15T21:10:48.269Z,1020.31
2018-12-15T21:11:48.285Z,1020.32
2018-12-15T21:12:48.279Z,1020.29
2018-12-15T21:13:48.229Z,1020.25
2018-12-15T21:14:48.221Z,1020.23
2018-12-15T21:15:48.212Z,1020.25
2018-12-15T21:16:48.205Z,1020.25
2018-12-15T21:17:48.231Z,1020.25
2018-12-15T21:18:48.198Z,1020.20
2018-12-15T21:19:48.345Z,1020.16
2018-12-15T21:20:48.169Z,1020.23
2018-12-15T21:21:49.678Z,1020.17
2018-12-15T21:22:48.163Z,1020.12
2018-12-15T21:23:48.145Z,1020.12
2018-12-15T21:24:48.113Z,1020.12
2018-12-15T21:25:48.098Z,1020.12
2018-12-15T21:26:48.099Z,1020.09
2018-12-15T21:27:48.101Z,1020.07
2018-12-15T21:28:48.078Z,1020.02
2018-12-15T21:29:48.059Z,1020.04
2018-12-15T21:30:48.059Z,1020.07
2018-12-15T21:31:48.048Z,1020.03
2018-12-15T21:32:48.031Z,1020.01
2018-12-15T21:33:49.434Z,1020.00
2018-12-15T21:34:48.083Z,1019.97
2018-12-15T21:35:48.013Z,1019.93
2018-12-15T21:36:48.028Z,1019.93
2018-12-15T21:37:48.014Z,1019.92
2018-12-15T21:38:48.014Z,1019.91
2018-12-15T21:39:47.967Z,1019.90
2018-12-15T21:40:47.972Z,1019.91
2018-12-15T21:41:47.995Z,1019.91
2018-12-15T21:42:47.977Z,1019.89
2018-12-15T21:43:47.952Z,1019.87
2018-12-15T21:44:47.913Z,1019.86
2018-12-15T21:45:47.937Z,1019.90
2018-12-15T21:46:47.924Z,1019.88
2018-12-15T21:47:47.892Z,1019.81
2018-12-15T21:48:47.926Z,1019.80
2018-12-15T21:49:47.886Z,1019.77
2018-12-15T21:50:47.844Z,1019.78
2018-12-15T21:51:47.843Z,1019.75
2018-12-15T21:52:47.849Z,1019.72
2018-12-15T21:53:47.831Z,1019.70
2018-12-15T21:54:47.809Z,1019.70
2018-12-15T21:55:47.808Z,1019.68
2018-12-15T21:56:47.793Z,1019.70
2018-12-15T21:57:47.776Z,1019.64
2018-12-15T21:58:47.806Z,1019.62
2018-12-15T21:59:47.753Z,1019.62
2018-12-15T22:00:47.744Z,1019.63
2018-12-15T22:01:47.726Z,1019.62
2018-12-15T22:02:47.715Z,1019.58
2018-12-15T22:03:47.711Z,1019.61
2018-12-15T22:04:47.714Z,1019.55
2018-12-15T22:05:47.694Z,1019.53
2018-12-15T22:06:47.692Z,1019.53
2018-12-15T22:07:47.667Z,1019.49
2018-12-15T22:08:47.656Z,1019.47
2018-12-15T22:09:47.660Z,1019.46
2018-12-15T22:10:47.646Z,1019.47
2018-12-15T22:11:47.619Z,1019.45
2018-12-15T22:12:47.617Z,1019.43
2018-12-15T22:13:47.602Z,1019.43
2018-12-15T22:14:47.632Z,1019.46
2018-12-15T22:15:47.602Z,1019.45
2018-12-15T22:16:47.572Z,1019.47
2018-12-15T22:17:47.554Z,1019.44
2018-12-15T22:18:47.554Z,1019.44
2018-12-15T22:19:47.574Z,1019.40
2018-12-15T22:20:47.537Z,1019.40
2018-12-15T22:21:47.511Z,1019.37
2018-12-15T22:22:47.553Z,1019.30
2018-12-15T22:23:47.501Z,1019.31
2018-12-15T22:24:47.515Z,1019.26
2018-12-15T22:25:47.497Z,1019.26
2018-12-15T22:26:47.484Z,1019.21
2018-12-15T22:27:47.459Z,1019.19
2018-12-15T22:28:47.447Z,1019.22
2018-12-15T22:29:47.455Z,1019.19
2018-12-15T22:30:47.427Z,1019.15
2018-12-15T22:31:47.415Z,1019.17
2018-12-15T22:32:47.412Z,1019.17
2018-12-15T22:33:47.389Z,1019.13
2018-12-15T22:34:47.405Z,1019.04
2018-12-15T22:35:47.371Z,1019.04
2018-12-15T22:36:47.363Z,1019.02
2018-12-15T22:37:47.348Z,1019.01
2018-12-15T22:38:47.331Z,1019.03
2018-12-15T22:39:47.372Z,1018.98
2018-12-15T22:40:48.012Z,1018.97
2018-12-15T22:41:47.306Z,1018.97
2018-12-15T22:42:47.291Z,1018.94
2018-12-15T22:43:47.300Z,1018.90
2018-12-15T22:44:47.384Z,1018.87
2018-12-15T22:45:47.298Z,1018.87
2018-12-15T22:46:47.246Z,1018.85
2018-12-15T22:47:47.250Z,1018.84
2018-12-15T22:48:47.241Z,1018.80
2018-12-15T22:49:47.224Z,1018.77
2018-12-15T22:50:47.218Z,1018.78
2018-12-15T22:51:47.204Z,1018.84
2018-12-15T22:52:47.185Z,1018.82
2018-12-15T22:53:47.177Z,1018.81
2018-12-15T22:54:47.179Z,1018.77
2018-12-15T22:55:47.173Z,1018.80
2018-12-15T22:56:47.166Z,1018.79
2018-12-15T22:57:47.144Z,1018.79
2018-12-15T22:58:47.122Z,1018.80
2018-12-15T22:59:47.118Z,1018.74
2018-12-15T23:00:47.125Z,1018.76
2018-12-15T23:01:47.121Z,1018.76
2018-12-15T23:02:47.093Z,1018.71
2018-12-15T23:03:47.103Z,1018.71
2018-12-15T23:04:47.062Z,1018.68
2018-12-15T23:05:47.100Z,1018.66
2018-12-15T23:06:47.060Z,1018.69
2018-12-15T23:07:47.056Z,1018.61
2018-12-15T23:08:47.054Z,1018.60
2018-12-15T23:09:47.134Z,1018.59
2018-12-15T23:10:47.030Z,1018.60
2018-12-15T23:11:46.996Z,1018.54
2018-12-15T23:12:47.018Z,1018.55
2018-12-15T23:13:46.970Z,1018.57
2018-12-15T23:14:46.965Z,1018.53
2018-12-15T23:15:46.983Z,1018.54
2018-12-15T23:16:46.929Z,1018.50
2018-12-15T23:17:46.947Z,1018.48
2018-12-15T23:18:46.915Z,1018.47
2018-12-15T23:19:46.906Z,1018.41
2018-12-15T23:20:46.909Z,1018.45
2018-12-15T23:21:46.882Z,1018.45
2018-12-15T23:22:46.925Z,1018.39
2018-12-15T23:23:46.864Z,1018.40
2018-12-15T23:24:46.861Z,1018.40
2018-12-15T23:25:46.946Z,1018.40
2018-12-15T23:26:46.838Z,1018.36
2018-12-15T23:27:46.837Z,1018.37
2018-12-15T23:28:46.807Z,1018.36
2018-12-15T23:29:46.815Z,1018.32
2018-12-15T23:30:46.809Z,1018.33
2018-12-15T23:31:46.777Z,1018.24
2018-12-15T23:32:46.762Z,1018.27
2018-12-15T23:33:46.755Z,1018.25
2018-12-15T23:34:46.734Z,1018.22
2018-12-15T23:35:46.772Z,1018.20
2018-12-15T23:36:46.729Z,1018.20
2018-12-15T23:37:46.714Z,1018.20
2018-12-15T23:38:46.703Z,1018.18
2018-12-15T23:39:46.736Z,1018.13
2018-12-15T23:40:46.682Z,1018.15
2018-12-15T23:41:46.693Z,1018.13
2018-12-15T23:42:46.668Z,1018.10
2018-12-15T23:43:46.647Z,1018.12
2018-12-15T23:44:46.641Z,1018.09
2018-12-15T23:45:46.627Z,1018.08
2018-12-15T23:46:46.657Z,1018.10
2018-12-15T23:47:46.632Z,1018.04
2018-12-15T23:48:46.596Z,1018.08
2018-12-15T23:49:46.580Z,1018.00
2018-12-15T23:50:46.566Z,1018.08
2018-12-15T23:51:46.579Z,1018.04
2018-12-15T23:52:46.566Z,1017.98
2018-12-15T23:53:46.558Z,1017.99
2018-12-15T23:54:46.536Z,1017.92
2018-12-15T23:55:46.552Z,1017.91
2018-12-15T23:56:46.564Z,1017.92
2018-12-15T23:57:46.490Z,1017.91
2018-12-15T23:58:46.492Z,1017.85
2018-12-15T23:59:46.482Z,1017.92
